createdAt,value
2019-01-24T00:00:37.923Z,36.4
2019-01-24T00:10:37.207Z,36.6
2019-01-24T00:20:36.971Z,42.8
2019-01-24T00:30:36.300Z,38
2019-01-24T00:40:35.347Z,35
2019-01-24T00:50:34.338Z,34.8
2019-01-24T01:00:33.963Z,35.2
2019-01-24T01:10:36.312Z,28
2019-01-24T01:20:35.630Z,34.7
2019-01-24T01:30:34.932Z,40.6
2019-01-24T01:40:34.267Z,31.6
2019-01-24T01:50:33.639Z,33.1
2019-01-24T02:00:32.938Z,36.9
2019-01-24T02:10:32.262Z,32.5
2019-01-24T02:20:31.682Z,32.8
2019-01-24T02:30:31.320Z,24.5
2019-01-24T02:40:30.802Z,28.6
2019-01-24T02:50:30.767Z,28.4
2019-01-24T03:00:30.417Z,25.2
2019-01-24T03:10:29.856Z,27.5
2019-01-24T03:20:29.197Z,25.7
2019-01-24T03:30:28.571Z,21.5
2019-01-24T03:40:34.802Z,29
2019-01-24T03:50:34.228Z,25.2
2019-01-24T04:00:33.580Z,29.2
2019-01-24T04:10:33.008Z,20.8
2019-01-24T04:20:32.162Z,26
2019-01-24T04:30:32.177Z,24.6
2019-01-24T04:40:31.843Z,23.1
2019-01-24T04:50:31.307Z,26.7
2019-01-24T05:00:31.259Z,21.6
2019-01-24T05:10:32.832Z,25.7
2019-01-24T05:20:32.249Z,20.2
2019-01-24T05:30:30.892Z,24.6
2019-01-24T05:40:29.426Z,21.8
2019-01-24T05:50:28.329Z,23.8
2019-01-24T06:00:27.704Z,46.2
2019-01-24T06:10:27.109Z,29.2
2019-01-24T06:20:26.484Z,23.3
2019-01-24T06:30:25.858Z,19.8
2019-01-24T06:40:24.644Z,27.2
2019-01-24T06:50:23.940Z,27.5
2019-01-24T07:00:23.311Z,21.1
2019-01-24T07:10:26.190Z,23.5
2019-01-24T07:20:25.534Z,23.6
2019-01-24T07:30:24.805Z,23.2
2019-01-24T07:40:24.170Z,22.6
2019-01-24T07:50:23.515Z,22.7
2019-01-24T08:00:22.836Z,22.6
2019-01-24T08:10:22.147Z,24.6
2019-01-24T08:20:21.543Z,19.5
2019-01-24T08:30:20.833Z,21.4
2019-01-24T08:40:20.339Z,21.2
2019-01-24T08:50:19.811Z,19.9
2019-01-24T09:00:19.172Z,20.1
2019-01-24T09:10:18.502Z,15.9
2019-01-24T09:20:18.032Z,15.3
2019-01-24T09:30:17.439Z,23.7
2019-01-24T09:40:16.374Z,22.7
2019-01-24T09:50:15.635Z,24.5
2019-01-24T10:00:15.820Z,14.8
2019-01-24T10:10:15.256Z,17.8
2019-01-24T10:20:14.631Z,11.5
2019-01-24T10:30:14.091Z,11.4
2019-01-24T10:40:14.077Z,15.1
2019-01-24T10:50:13.380Z,9.5
2019-01-24T11:00:12.659Z,12.8
2019-01-24T11:10:12.117Z,14.8
2019-01-24T11:20:11.598Z,13.7
2019-01-24T11:30:10.907Z,13.2
2019-01-24T11:40:10.369Z,16
2019-01-24T11:50:09.705Z,16.9
2019-01-24T12:00:09.087Z,14.2
2019-01-24T12:10:10.237Z,16.6
2019-01-24T12:20:09.613Z,10.2
2019-01-24T12:30:09.030Z,9.5
2019-01-24T12:40:08.460Z,9.9
2019-01-24T12:50:07.988Z,11.6
2019-01-24T13:00:08.820Z,11.5
2019-01-24T13:10:08.312Z,12.7
2019-01-24T13:20:07.851Z,14.9
2019-01-24T13:30:07.336Z,14
2019-01-24T13:40:06.828Z,16.8
2019-01-24T13:50:12.942Z,14.9
2019-01-24T14:00:12.435Z,11.7
2019-01-24T14:10:12.829Z,16.4
2019-01-24T14:20:12.423Z,10.9
2019-01-24T14:30:12.177Z,14
2019-01-24T14:40:11.557Z,13.7
2019-01-24T14:50:10.991Z,12.7
2019-01-24T15:00:10.651Z,15.7
2019-01-24T15:10:18.467Z,16.1
2019-01-24T15:20:18.024Z,13.3
2019-01-24T15:30:17.398Z,18.4
2019-01-24T15:40:16.771Z,20.1
2019-01-24T15:50:16.203Z,13.6
2019-01-24T16:00:15.640Z,15
2019-01-24T16:10:16.147Z,18.8
2019-01-24T16:20:15.621Z,21
2019-01-24T16:30:15.136Z,20.4
2019-01-24T16:40:14.630Z,38.3
2019-01-24T16:50:13.972Z,93.4
2019-01-24T17:00:13.362Z,50.4
2019-01-24T17:10:13.287Z,72.6
2019-01-24T17:20:13.852Z,47.3
2019-01-24T17:30:17.385Z,38.2
2019-01-24T17:40:17.454Z,77.5
2019-01-24T17:50:17.051Z,84
2019-01-24T18:00:16.838Z,66.2
2019-01-24T18:10:17.528Z,60.6
2019-01-24T18:20:18.677Z,160
2019-01-24T18:30:20.013Z,105.7
2019-01-24T18:40:20.896Z,63.4
2019-01-24T18:50:22.084Z,58.4
2019-01-24T19:00:25.144Z,56.3
2019-01-24T19:10:25.662Z,59.2
2019-01-24T19:20:25.248Z,59.6
2019-01-24T19:30:26.335Z,65.1
2019-01-24T19:40:31.347Z,63.1
2019-01-24T19:50:30.893Z,58.4
2019-01-24T20:00:31.105Z,64.4
2019-01-24T20:10:32.679Z,55
2019-01-24T20:20:32.652Z,57.8
2019-01-24T20:30:34.362Z,66
2019-01-24T20:40:38.454Z,57.2
2019-01-24T20:50:38.422Z,57.2
2019-01-24T21:00:39.450Z,63
2019-01-24T21:10:45.898Z,55.5
2019-01-24T21:20:45.377Z,66.7
2019-01-24T21:30:44.783Z,59.4
2019-01-24T21:40:44.125Z,59.5
2019-01-24T21:50:43.577Z,56.9
2019-01-24T22:00:43.275Z,48.9
2019-01-24T22:10:42.689Z,54.9
2019-01-24T22:20:42.301Z,56.2
2019-01-24T22:30:41.949Z,66.1
2019-01-24T22:40:41.475Z,69.5
2019-01-24T22:50:41.259Z,60.5
2019-01-24T23:00:40.679Z,56.8
2019-01-24T23:10:40.132Z,58.8
2019-01-24T23:20:39.518Z,59.1
2019-01-24T23:30:38.888Z,62.8
2019-01-24T23:40:38.332Z,54.3
2019-01-24T23:50:37.733Z,54.4
